Time;durP1;ratioP1;P1;durP2;ratioP2;P2;SDS_P1;SDS_P2;PMS_P1;PMS_P2;Temp;Humidity;BMP_temperature;BMP_pressure;BME280_temperature;BME280_humidity;BME280_pressure;Samples;Min_cycle;Max_cycle;Signal;HPM_P1;HPM_P2
2023/01/16 00:02:05;;;;;;;;;;;;;;;6.57;68.84;99136.00;5095733;28;19993;-76
2023/01/16 00:05:08;;;;;;;;;;;;;;;6.78;69.22;99114.91;5095720;28;19919;-75
2023/01/16 00:08:12;;;;;;;;;;;;;;;7.04;69.76;99114.19;5083420;28;19919;-76
2023/01/16 00:11:16;;;;;;;;;;;;;;;6.66;69.38;99114.69;5095665;28;19922;-75
2023/01/16 00:14:18;;;;;;;;;;;;;;;6.52;69.34;99101.69;5095870;28;20376;-75
2023/01/16 00:17:21;;;;;;;;;;;;;;;6.79;68.67;99086.25;5095480;28;19964;-75
2023/01/16 00:20:24;;;;;;;;;;;;;;;6.81;69.18;99094.78;5095444;28;19922;-75
2023/01/16 00:23:28;;;;;;;;;;;;;;;6.37;69.17;99094.78;5094742;28;19964;-75
2023/01/16 00:26:31;;;;;;;;;;;;;;;6.53;69.46;99093.81;5081169;28;20293;-76
2023/01/16 00:29:35;;;;;;;;;;;;;;;6.50;69.54;99074.97;5093702;28;19919;-76
2023/01/16 00:32:38;;;;;;;;;;;;;;;6.25;69.46;99068.63;5080525;28;19923;-76
2023/01/16 00:35:41;;;;;;;;;;;;;;;6.52;69.42;99048.00;5093293;28;19919;-76
2023/01/16 00:38:45;;;;;;;;;;;;;;;6.73;69.51;99056.28;5093188;28;20403;-76
2023/01/16 00:41:49;;;;;;;;;;;;;;;6.59;69.39;99052.84;5094479;28;19986;-76
2023/01/16 00:44:53;;;;;;;;;;;;;;;6.61;69.22;99051.81;5094841;28;20411;-76
2023/01/16 00:47:58;;;;;;;;;;;;;;;6.73;70.19;99048.50;5094688;28;19946;-76
2023/01/16 00:51:01;;;;;;;;;;;;;;;6.11;70.64;99032.25;5094876;28;19919;-76
2023/01/16 00:54:04;;;;;;;;;;;;;;;6.48;70.54;99030.09;5094816;28;19999;-76
2023/01/16 00:57:07;;;;;;;;;;;;;;;6.39;69.95;99025.47;5094919;28;19919;-76
2023/01/16 01:00:11;;;;;;;;;;;;;;;6.48;70.21;99009.34;5094672;28;19919;-76
2023/01/16 01:03:14;;;;;;;;;;;;;;;6.67;69.95;99020.28;5094787;28;20331;-75
2023/01/16 01:06:16;;;;;;;;;;;;;;;6.47;69.61;99007.66;5094623;28;20338;-75
2023/01/16 01:09:20;;;;;;;;;;;;;;;6.35;70.53;99003.19;5094610;28;19950;-75
2023/01/16 01:12:23;;;;;;;;;;;;;;;6.60;72.18;98989.56;5094361;28;19985;-75
2023/01/16 01:15:26;;;;;;;;;;;;;;;6.87;70.00;98980.09;5094434;28;19957;-76
2023/01/16 01:18:29;;;;;;;;;;;;;;;6.79;69.01;98978.91;5094288;28;19968;-76
2023/01/16 01:21:32;;;;;;;;;;;;;;;6.85;71.50;98975.94;5094275;28;19919;-76
2023/01/16 01:24:35;;;;;;;;;;;;;;;6.71;72.03;98980.22;5094201;28;19923;-75
2023/01/16 01:27:38;;;;;;;;;;;;;;;6.72;70.61;98971.47;5094093;28;19957;-75
2023/01/16 01:30:51;;;;;;;;;;;;;;;6.56;69.43;98960.34;5093909;28;19922;-75
2023/01/16 01:33:54;;;;;;;;;;;;;;;6.96;68.94;98944.94;5092965;28;20024;-76
2023/01/16 01:36:56;;;;;;;;;;;;;;;6.71;69.66;98948.22;5093748;28;20289;-76
2023/01/16 01:40:01;;;;;;;;;;;;;;;7.00;68.61;98933.41;5093987;28;19919;-76
2023/01/16 01:43:09;;;;;;;;;;;;;;;7.06;69.65;98927.81;5093966;28;19945;-76
2023/01/16 01:46:34;;;;;;;;;;;;;;;6.93;71.71;98932.13;5093870;28;19919;-77
2023/01/16 01:49:37;;;;;;;;;;;;;;;6.87;71.16;98935.09;5093657;28;20406;-77
2023/01/16 01:52:44;;;;;;;;;;;;;;;7.01;69.67;98929.03;5093576;28;19923;-77
2023/01/16 01:55:47;;;;;;;;;;;;;;;6.83;70.21;98931.00;5093574;28;19965;-76
2023/01/16 01:58:54;;;;;;;;;;;;;;;6.83;69.20;98923.22;5093595;28;19946;-76
2023/01/16 02:01:58;;;;;;;;;;;;;;;6.71;69.76;98912.66;5093922;28;19919;-77
2023/01/16 02:05:04;;;;;;;;;;;;;;;6.92;68.51;98910.50;5093579;28;19966;-77
2023/01/16 02:08:07;;;;;;;;;;;;;;;6.98;69.46;98904.06;5093527;28;19918;-76
2023/01/16 02:11:26;;;;;;;;;;;;;;;7.01;69.18;98898.69;5093575;28;19919;-76
2023/01/16 02:14:31;;;;;;;;;;;;;;;7.10;69.78;98882.50;5093444;28;19985;-76
2023/01/16 02:20:59;;;;;;;;;;;;;;;7.03;70.09;98863.03;5093329;28;19965;-75
2023/01/16 02:24:35;;;;;;;;;;;;;;;6.75;70.71;98858.75;5093253;28;19922;-76
2023/01/16 02:27:41;;;;;;;;;;;;;;;6.46;70.52;98845.00;5080825;28;19919;-76
2023/01/16 02:31:02;;;;;;;;;;;;;;;6.66;70.63;98841.16;5093044;28;19938;-75
2023/01/16 02:34:15;;;;;;;;;;;;;;;6.69;71.57;98836.59;5093451;28;20384;-75
2023/01/16 02:37:25;;;;;;;;;;;;;;;6.95;71.27;98815.91;5093249;28;19935;-75
2023/01/16 02:40:39;;;;;;;;;;;;;;;6.76;70.27;98813.66;5093244;28;19934;-75
2023/01/16 02:44:08;;;;;;;;;;;;;;;6.43;70.81;98808.84;5093125;28;19980;-75
2023/01/16 02:47:14;;;;;;;;;;;;;;;6.49;71.08;98795.50;5096936;28;19958;-76
2023/01/16 02:50:27;;;;;;;;;;;;;;;6.45;70.57;98781.88;5097242;28;19919;-76
2023/01/16 02:53:38;;;;;;;;;;;;;;;6.90;70.07;98766.84;5096995;28;20327;-76
2023/01/16 02:56:46;;;;;;;;;;;;;;;7.12;69.68;98763.69;5097148;28;19982;-76
2023/01/16 02:59:50;;;;;;;;;;;;;;;7.19;70.28;98754.53;5097032;28;19919;-76
2023/01/16 03:02:59;;;;;;;;;;;;;;;6.91;70.60;98752.94;5096883;28;19923;-76
2023/01/16 03:06:06;;;;;;;;;;;;;;;7.02;70.40;98748.78;5097129;28;20425;-76
2023/01/16 03:09:19;;;;;;;;;;;;;;;7.17;71.07;98738.22;5096709;28;19919;-76
2023/01/16 03:13:00;;;;;;;;;;;;;;;6.85;69.65;98731.72;5096711;28;20331;-76
2023/01/16 03:16:04;;;;;;;;;;;;;;;6.67;71.09;98723.38;5054254;28;19919;-76
2023/01/16 03:19:45;;;;;;;;;;;;;;;6.53;71.00;98726.84;5054313;28;20019;-75
2023/01/16 03:23:06;;;;;;;;;;;;;;;6.59;70.22;98708.28;5014430;28;19921;-75
2023/01/16 03:26:23;;;;;;;;;;;;;;;7.06;69.47;98708.69;5025872;28;20004;-76
2023/01/16 03:29:40;;;;;;;;;;;;;;;7.16;69.45;98687.16;5096513;28;19954;-75
2023/01/16 03:32:46;;;;;;;;;;;;;;;7.13;70.50;98682.16;5096239;28;19970;-75
2023/01/16 03:35:54;;;;;;;;;;;;;;;7.22;70.69;98678.94;5096249;28;19919;-76
2023/01/16 03:39:00;;;;;;;;;;;;;;;7.11;69.88;98660.63;5096316;28;19934;-76
2023/01/16 03:42:05;;;;;;;;;;;;;;;6.93;69.38;98656.72;5096259;28;20328;-75
2023/01/16 03:45:16;;;;;;;;;;;;;;;6.84;68.87;98652.94;5096218;28;20006;-74
2023/01/16 03:48:19;;;;;;;;;;;;;;;6.95;68.98;98647.03;5095878;28;19919;-75
2023/01/16 03:51:30;;;;;;;;;;;;;;;6.97;69.35;98632.19;5095998;28;19918;-74
2023/01/16 03:54:45;;;;;;;;;;;;;;;7.16;69.71;98631.75;5096338;28;19923;-75
2023/01/16 03:57:48;;;;;;;;;;;;;;;7.17;69.82;98623.84;5094830;28;19965;-75
2023/01/16 04:00:58;;;;;;;;;;;;;;;7.23;70.67;98627.78;5095883;28;19919;-75
2023/01/16 04:04:05;;;;;;;;;;;;;;;6.89;70.33;98613.66;5095860;28;20299;-74
2023/01/16 04:07:29;;;;;;;;;;;;;;;7.05;70.77;98618.66;5042678;28;19992;-76
2023/01/16 04:10:37;;;;;;;;;;;;;;;6.60;71.39;98595.66;5055122;28;19938;-76
2023/01/16 04:13:43;;;;;;;;;;;;;;;6.59;70.64;98591.41;5055341;28;20316;-76
2023/01/16 04:16:47;;;;;;;;;;;;;;;6.45;71.93;98581.13;5054992;28;19955;-76
2023/01/16 04:19:49;;;;;;;;;;;;;;;6.88;70.41;98573.88;5055171;28;19919;-76
2023/01/16 04:22:52;;;;;;;;;;;;;;;6.94;69.84;98570.84;5055083;28;19919;-77
2023/01/16 04:25:56;;;;;;;;;;;;;;;6.89;70.37;98553.91;5055070;28;19979;-76
2023/01/16 04:28:59;;;;;;;;;;;;;;;6.93;70.39;98552.78;5054641;28;20397;-76
2023/01/16 04:32:02;;;;;;;;;;;;;;;6.73;70.16;98539.38;5054635;28;19924;-75
2023/01/16 04:35:05;;;;;;;;;;;;;;;6.68;70.67;98533.66;5054800;28;19951;-78
2023/01/16 04:38:11;;;;;;;;;;;;;;;6.74;69.16;98530.66;5054903;28;20330;-77
2023/01/16 04:41:35;;;;;;;;;;;;;;;6.63;69.13;98519.31;5042589;28;19923;-77
2023/01/16 04:44:39;;;;;;;;;;;;;;;6.15;70.25;98504.34;5054744;28;20469;-78
2023/01/16 04:47:49;;;;;;;;;;;;;;;6.18;70.96;98490.34;5054661;28;20361;-79
2023/01/16 04:50:54;;;;;;;;;;;;;;;5.92;71.16;98471.28;5054311;28;19920;-78
2023/01/16 04:53:57;;;;;;;;;;;;;;;6.11;70.93;98466.56;5053965;28;19923;-75
2023/01/16 04:57:03;;;;;;;;;;;;;;;6.52;70.37;98460.34;5054339;28;20337;-76
2023/01/16 05:00:09;;;;;;;;;;;;;;;6.00;71.10;98454.31;5054274;28;19927;-76
2023/01/16 05:03:13;;;;;;;;;;;;;;;5.87;71.35;98448.25;5054913;28;19919;-80
2023/01/16 05:06:16;;;;;;;;;;;;;;;6.31;70.59;98451.41;5041901;28;20493;-76
2023/01/16 05:09:24;;;;;;;;;;;;;;;6.69;70.20;98435.81;5054214;28;19958;-75
2023/01/16 05:12:27;;;;;;;;;;;;;;;6.66;69.57;98434.25;5054104;28;19923;-74
2023/01/16 05:15:31;;;;;;;;;;;;;;;6.34;70.37;98427.84;5053209;28;20011;-74
2023/01/16 05:18:33;;;;;;;;;;;;;;;6.12;70.35;98405.94;5053995;28;20289;-73
2023/01/16 05:21:36;;;;;;;;;;;;;;;6.37;69.84;98405.09;5054237;28;19919;-73
2023/01/16 05:24:39;;;;;;;;;;;;;;;6.18;70.50;98392.56;5054265;28;20365;-73
2023/01/16 05:27:43;;;;;;;;;;;;;;;6.24;70.31;98379.16;5053839;28;19919;-72
2023/01/16 05:30:48;;;;;;;;;;;;;;;6.22;70.60;98372.41;5053408;28;19920;-73
2023/01/16 05:33:51;;;;;;;;;;;;;;;6.16;69.99;98365.91;5053717;28;19924;-73
2023/01/16 05:36:55;;;;;;;;;;;;;;;6.09;70.29;98359.44;5053088;28;20015;-74
2023/01/16 05:39:59;;;;;;;;;;;;;;;6.14;70.11;98348.78;5051850;28;19919;-76
2023/01/16 05:43:03;;;;;;;;;;;;;;;6.01;70.49;98346.19;5051612;28;19920;-81
2023/01/16 05:46:06;;;;;;;;;;;;;;;6.04;69.98;98333.84;5050635;28;20290;-76
2023/01/16 05:49:11;;;;;;;;;;;;;;;5.98;70.26;98323.06;5050296;28;20441;-77
2023/01/16 05:52:15;;;;;;;;;;;;;;;5.93;69.96;98317.34;5050544;28;20293;-75
2023/01/16 05:55:18;;;;;;;;;;;;;;;6.09;70.03;98302.38;5051844;28;19959;-75
2023/01/16 05:58:22;;;;;;;;;;;;;;;6.15;69.45;98298.53;5051621;28;19920;-75
2023/01/16 06:01:25;;;;;;;;;;;;;;;6.03;69.94;98292.41;5051273;28;19982;-75
2023/01/16 06:04:28;;;;;;;;;;;;;;;5.87;69.83;98292.66;5051925;28;20107;-75
2023/01/16 06:07:31;;;;;;;;;;;;;;;6.20;68.61;98280.88;5052131;28;19919;-76
2023/01/16 06:14:12;;;;;;;;;;;;;;;6.38;68.18;98261.44;5051538;28;19966;-76
2023/01/16 06:17:15;;;;;;;;;;;;;;;6.21;68.47;98248.81;5052882;28;19928;-76
2023/01/16 06:20:18;;;;;;;;;;;;;;;6.43;70.03;98237.72;5052191;28;19920;-76
2023/01/16 06:23:21;;;;;;;;;;;;;;;6.06;68.98;98229.94;5052903;28;19982;-75
2023/01/16 06:26:26;;;;;;;;;;;;;;;6.12;68.54;98224.31;5052877;28;19940;-75
2023/01/16 06:29:32;;;;;;;;;;;;;;;6.20;68.31;98231.59;5052782;28;20290;-75
2023/01/16 06:32:43;;;;;;;;;;;;;;;6.07;68.60;98221.25;5039914;28;19994;-78
2023/01/16 06:35:48;;;;;;;;;;;;;;;6.49;68.24;98213.91;5052895;28;19990;-78
2023/01/16 06:38:52;;;;;;;;;;;;;;;6.53;67.20;98212.75;5052714;28;20343;-76
2023/01/16 06:41:58;;;;;;;;;;;;;;;6.41;68.39;98204.06;5052985;28;19923;-76
2023/01/16 06:45:00;;;;;;;;;;;;;;;6.23;67.80;98201.06;5052650;28;19935;-76
2023/01/16 06:48:03;;;;;;;;;;;;;;;6.25;68.10;98193.13;5052596;28;19963;-76
2023/01/16 06:51:07;;;;;;;;;;;;;;;6.28;67.72;98188.56;5052626;28;19920;-77
2023/01/16 06:54:13;;;;;;;;;;;;;;;6.33;67.72;98185.66;5053061;28;19924;-83
2023/01/16 06:57:22;;;;;;;;;;;;;;;6.25;67.97;98183.63;5052882;28;19936;-84
2023/01/16 07:00:25;;;;;;;;;;;;;;;6.34;67.17;98176.09;5052553;28;19932;-77
2023/01/16 07:03:30;;;;;;;;;;;;;;;6.74;67.20;98174.84;5052563;28;20021;-75
2023/01/16 07:06:33;;;;;;;;;;;;;;;6.38;67.52;98159.34;5052584;28;19918;-77
2023/01/16 07:09:37;;;;;;;;;;;;;;;6.47;67.50;98150.88;5051193;28;19982;-78
2023/01/16 07:12:40;;;;;;;;;;;;;;;6.71;66.92;98143.91;5052324;28;19924;-78
2023/01/16 07:22:38;;;;;;;;;;;;;;;6.13;67.98;98137.78;5052409;28;19958;-79
2023/01/16 07:25:41;;;;;;;;;;;;;;;5.78;68.97;98127.31;5052422;28;20380;-77
2023/01/16 07:28:46;;;;;;;;;;;;;;;5.89;68.71;98109.19;5052374;28;19920;-78
2023/01/16 07:31:49;;;;;;;;;;;;;;;5.99;68.60;98104.22;5053413;28;20020;-79
2023/01/16 07:34:52;;;;;;;;;;;;;;;6.08;68.09;98077.59;5044018;28;19967;-79
2023/01/16 07:37:56;;;;;;;;;;;;;;;5.75;68.23;98065.28;5055976;28;19927;-80
2023/01/16 07:41:00;;;;;;;;;;;;;;;6.26;67.37;98055.50;5055683;28;19938;-79
2023/01/16 07:44:03;;;;;;;;;;;;;;;6.34;66.97;98038.53;5056103;28;20385;-78
2023/01/16 07:47:06;;;;;;;;;;;;;;;6.12;67.59;98047.06;5055693;28;20396;-78
2023/01/16 07:50:11;;;;;;;;;;;;;;;6.05;67.91;98031.13;5055571;28;19920;-79
2023/01/16 07:53:14;;;;;;;;;;;;;;;6.45;68.05;98026.41;5043141;28;19919;-79
2023/01/16 07:56:17;;;;;;;;;;;;;;;6.43;66.99;98025.69;5055412;28;19923;-78
2023/01/16 07:59:20;;;;;;;;;;;;;;;6.34;66.89;98016.00;5055317;28;19966;-74
2023/01/16 08:02:24;;;;;;;;;;;;;;;6.05;66.64;98000.00;5055265;28;20005;-78
2023/01/16 08:05:30;;;;;;;;;;;;;;;5.91;66.56;97997.59;5055510;28;19975;-82
2023/01/16 08:08:35;;;;;;;;;;;;;;;6.08;66.30;97979.03;5055751;28;19996;-79
2023/01/16 08:11:46;;;;;;;;;;;;;;;6.13;65.24;97973.50;5055209;28;19961;-78
2023/01/16 08:14:49;;;;;;;;;;;;;;;6.18;65.02;97974.78;5055223;28;20411;-80
2023/01/16 08:17:53;;;;;;;;;;;;;;;6.08;64.35;97968.66;5053220;28;19923;-76
2023/01/16 08:20:56;;;;;;;;;;;;;;;6.05;64.90;97968.88;5040721;28;19958;-77
2023/01/16 08:23:58;;;;;;;;;;;;;;;6.21;66.14;97948.63;5053403;28;19986;-78
2023/01/16 08:27:01;;;;;;;;;;;;;;;5.86;67.69;97934.84;5042115;28;20395;-85
2023/01/16 08:30:05;;;;;;;;;;;;;;;5.75;68.36;97920.91;5053589;28;19947;-82
2023/01/16 08:33:09;;;;;;;;;;;;;;;5.65;69.30;97922.53;5053166;28;19924;-85
2023/01/16 08:36:13;;;;;;;;;;;;;;;5.62;70.29;97899.44;5053309;28;19919;-85
2023/01/16 08:39:16;;;;;;;;;;;;;;;5.49;72.00;97901.28;5053188;28;19958;-78
2023/01/16 08:52:39;;;;;;;;;;;;;;;5.53;73.09;97895.75;5036240;28;19963;-77
2023/01/16 08:55:42;;;;;;;;;;;;;;;6.10;72.65;97883.75;5054476;28;19962;-75
2023/01/16 08:58:47;;;;;;;;;;;;;;;6.84;68.78;97872.84;5054422;28;19939;-86
2023/01/16 09:01:53;;;;;;;;;;;;;;;6.81;66.76;97873.09;5054286;28;19936;-86
2023/01/16 09:04:57;;;;;;;;;;;;;;;6.95;66.19;97868.44;5054380;28;20011;-86
2023/01/16 09:08:04;;;;;;;;;;;;;;;6.86;66.18;97865.75;5042514;28;20377;-86
2023/01/16 09:14:38;;;;;;;;;;;;;;;6.85;66.50;97853.72;5039503;28;19923;-74
2023/01/16 09:17:41;;;;;;;;;;;;;;;6.88;66.15;97851.69;5054152;28;20384;-74
2023/01/16 09:20:44;;;;;;;;;;;;;;;7.03;66.04;97839.25;5053897;28;19958;-79
2023/01/16 09:23:47;;;;;;;;;;;;;;;7.06;66.42;97844.22;5054249;28;20365;-84
2023/01/16 09:30:22;;;;;;;;;;;;;;;6.98;65.64;97833.59;5041471;28;20420;-86
2023/01/16 09:33:54;;;;;;;;;;;;;;;;;;;;;
2023/01/16 09:37:36;;;;;;;;;;;;;;;6.93;66.33;97830.56;5042020;28;19936;-85
2023/01/16 09:41:04;;;;;;;;;;;;;;;7.08;65.45;97818.91;5041381;28;20278;-85
2023/01/16 09:44:13;;;;;;;;;;;;;;;6.98;65.32;97820.59;5053495;28;19920;-84
2023/01/16 09:47:22;;;;;;;;;;;;;;;6.94;65.12;97803.63;5051944;28;20456;-84
2023/01/16 09:50:42;;;;;;;;;;;;;;;6.96;65.71;97810.34;5053149;28;19936;-83
2023/01/16 10:05:46;;;;;;;;;;;;;;;7.18;65.87;97798.22;5051698;28;19920;-82
2023/01/16 10:08:49;;;;;;;;;;;;;;;7.15;65.70;97788.91;5053294;28;20010;-79
2023/01/16 10:12:01;;;;;;;;;;;;;;;7.23;65.84;97786.47;5053458;28;20289;-78
2023/01/16 10:15:19;;;;;;;;;;;;;;;7.21;66.09;97780.59;5053141;28;20010;-84
2023/01/16 10:18:39;;;;;;;;;;;;;;;7.25;65.67;97768.19;5052903;28;19919;-87
2023/01/16 10:22:16;;;;;;;;;;;;;;;7.28;65.28;97761.91;5053162;28;19919;-77
2023/01/16 10:25:22;;;;;;;;;;;;;;;7.19;64.95;97751.31;5035532;28;19935;-86
2023/01/16 10:28:27;;;;;;;;;;;;;;;7.09;65.34;97744.41;5053366;28;20324;-86
2023/01/16 10:31:55;;;;;;;;;;;;;;;7.01;65.83;97739.81;5052779;28;19939;-86
2023/01/16 10:35:03;;;;;;;;;;;;;;;6.82;65.96;97739.69;5053300;28;20393;-86
2023/01/16 10:38:17;;;;;;;;;;;;;;;6.90;65.65;97726.91;5053061;28;19919;-85
2023/01/16 10:56:41;;;;;;;;;;;;;;;7.07;66.08;97674.38;5052883;28;19923;-86
2023/01/16 10:59:46;;;;;;;;;;;;;;;7.09;66.24;97664.69;5040492;28;20289;-86
2023/01/16 11:02:49;;;;;;;;;;;;;;;7.12;66.98;97651.44;5040486;28;19927;-85
2023/01/16 11:06:05;;;;;;;;;;;;;;;7.11;66.94;97660.16;5052994;28;19943;-80
2023/01/16 11:09:12;;;;;;;;;;;;;;;7.17;66.45;97651.03;5056678;28;19984;-83
2023/01/16 11:19:46;;;;;;;;;;;;;;;7.57;66.65;97632.88;5049416;28;19919;-85
2023/01/16 11:22:58;;;;;;;;;;;;;;;7.55;66.38;97608.78;5056375;28;19951;-83
2023/01/16 11:26:04;;;;;;;;;;;;;;;7.39;66.62;97613.66;5056503;28;19966;-83
2023/01/16 11:29:12;;;;;;;;;;;;;;;7.41;68.49;97591.78;5056274;28;20169;-83
2023/01/16 11:32:17;;;;;;;;;;;;;;;7.18;67.22;97585.13;5073195;28;20408;-83
2023/01/16 11:35:25;;;;;;;;;;;;;;;7.17;67.43;97580.88;5076520;28;19956;-84
2023/01/16 11:38:29;;;;;;;;;;;;;;;7.28;67.94;97585.19;5076242;28;20278;-83
2023/01/16 11:41:34;;;;;;;;;;;;;;;7.11;68.23;97578.81;5076066;28;19973;-82
2023/01/16 11:48:24;;;;;;;;;;;;;;;7.21;68.40;97570.09;5075846;28;19919;-84
2023/01/16 11:51:29;;;;;;;;;;;;;;;7.11;68.17;97538.03;5075946;28;19919;-75
2023/01/16 11:54:33;;;;;;;;;;;;;;;7.21;67.83;97528.53;5076046;28;19918;-82
2023/01/16 11:57:46;;;;;;;;;;;;;;;7.42;66.39;97519.81;5075811;28;19924;-84
2023/01/16 12:00:57;;;;;;;;;;;;;;;7.40;66.39;97511.31;5075553;28;19935;-82
2023/01/16 12:04:18;;;;;;;;;;;;;;;7.48;66.81;97501.06;5075671;28;19958;-83
2023/01/16 12:07:26;;;;;;;;;;;;;;;7.48;66.85;97493.28;5075900;28;19919;-82
2023/01/16 12:10:41;;;;;;;;;;;;;;;7.48;66.88;97467.28;5075486;28;20286;-83
2023/01/16 12:14:18;;;;;;;;;;;;;;;7.30;66.66;97461.09;5075586;28;20415;-82
2023/01/16 12:17:30;;;;;;;;;;;;;;;7.39;66.87;97442.91;5075345;28;19963;-78
2023/01/16 12:20:44;;;;;;;;;;;;;;;7.52;66.05;97437.44;5075214;28;19920;-85
2023/01/16 12:24:07;;;;;;;;;;;;;;;7.72;66.35;97427.03;5075427;28;19919;-83
2023/01/16 12:27:16;;;;;;;;;;;;;;;7.76;65.80;97407.63;5074964;28;19962;-84
2023/01/16 12:30:19;;;;;;;;;;;;;;;7.70;65.61;97393.38;5061672;28;19923;-84
2023/01/16 12:33:32;;;;;;;;;;;;;;;7.81;65.22;97395.81;5074958;28;19923;-80
2023/01/16 12:36:54;;;;;;;;;;;;;;;7.52;65.42;97385.44;5075071;28;19986;-84
2023/01/16 12:40:25;;;;;;;;;;;;;;;7.52;65.52;97376.84;5074910;28;19919;-82
2023/01/16 12:43:45;;;;;;;;;;;;;;;7.81;64.84;97356.00;5075178;28;19966;-83
2023/01/16 12:46:53;;;;;;;;;;;;;;;7.84;64.94;97340.09;5074708;28;20388;-83
2023/01/16 12:50:10;;;;;;;;;;;;;;;7.66;65.38;97340.84;5075081;28;19938;-82
2023/01/16 12:53:36;;;;;;;;;;;;;;;7.45;66.42;97342.78;5074623;28;19931;-83
2023/01/16 12:56:40;;;;;;;;;;;;;;;7.54;66.41;97338.53;5074927;28;20320;-82
2023/01/16 12:59:49;;;;;;;;;;;;;;;7.63;66.79;97335.91;5062023;28;19923;-81
2023/01/16 13:03:18;;;;;;;;;;;;;;;7.39;67.13;97327.72;5073506;28;19919;-83
2023/01/16 13:06:44;;;;;;;;;;;;;;;7.59;67.24;97318.94;5072716;28;20214;-82
2023/01/16 13:13:26;;;;;;;;;;;;;;;7.42;68.06;97301.47;5072064;28;19969;-83
2023/01/16 13:16:33;;;;;;;;;;;;;;;7.56;67.16;97293.25;5072361;28;19919;-85
2023/01/16 13:19:40;;;;;;;;;;;;;;;7.41;67.97;97289.44;5049267;28;19919;-83
2023/01/16 13:22:47;;;;;;;;;;;;;;;7.60;67.81;97273.78;5073512;28;19919;-84
2023/01/16 13:26:02;;;;;;;;;;;;;;;7.58;67.46;97275.69;5074129;28;20069;-84
2023/01/16 13:29:22;;;;;;;;;;;;;;;7.52;67.88;97259.84;5073845;28;19950;-81
2023/01/16 13:32:26;;;;;;;;;;;;;;;7.39;68.10;97266.16;5061428;28;19931;-79
2023/01/16 13:35:43;;;;;;;;;;;;;;;7.50;68.33;97262.59;5073788;28;19919;-86
2023/01/16 13:39:06;;;;;;;;;;;;;;;7.44;68.41;97255.34;5075582;28;20288;-84
2023/01/16 13:42:11;;;;;;;;;;;;;;;7.57;68.03;97244.66;5073821;28;19935;-85
2023/01/16 13:48:52;;;;;;;;;;;;;;;7.53;68.67;97246.72;5073685;28;19920;-84
2023/01/16 13:51:56;;;;;;;;;;;;;;;7.42;68.50;97239.06;5073791;28;19920;-84
2023/01/16 13:55:01;;;;;;;;;;;;;;;7.47;69.34;97236.88;5073906;28;19969;-82
2023/01/16 13:58:18;;;;;;;;;;;;;;;7.31;69.86;97236.66;5073505;28;19919;-84
2023/01/16 14:01:28;;;;;;;;;;;;;;;7.22;70.50;97222.72;5073476;28;19920;-84
2023/01/16 14:04:31;;;;;;;;;;;;;;;7.36;69.91;97213.63;5073413;28;19935;-84
2023/01/16 14:11:28;;;;;;;;;;;;;;;7.50;70.06;97195.00;5093163;28;19980;-81
2023/01/16 14:18:15;;;;;;;;;;;;;;;7.48;69.53;97155.31;5092892;28;19956;-81
2023/01/16 14:21:37;;;;;;;;;;;;;;;7.41;69.64;97149.06;5093609;28;19999;-83
2023/01/16 14:24:44;;;;;;;;;;;;;;;7.45;70.48;97137.41;5093635;28;19981;-80
2023/01/16 14:27:50;;;;;;;;;;;;;;;7.44;69.93;97118.41;5081080;28;20331;-81
2023/01/16 14:30:54;;;;;;;;;;;;;;;7.51;69.81;97110.84;5093108;28;20011;-78
2023/01/16 14:33:58;;;;;;;;;;;;;;;7.51;69.19;97102.22;5093212;28;20411;-81
2023/01/16 14:37:04;;;;;;;;;;;;;;;7.50;69.70;97093.63;5093292;28;19958;-81
2023/01/16 14:40:09;;;;;;;;;;;;;;;7.43;69.83;97082.16;5080746;28;19962;-84
2023/01/16 14:57:20;;;;;;;;;;;;;;;7.44;69.88;97045.63;5097585;28;20386;-81
2023/01/16 15:00:23;;;;;;;;;;;;;;;7.45;70.23;97047.25;5098815;28;19918;-81
2023/01/16 15:03:28;;;;;;;;;;;;;;;7.49;70.39;97032.19;5098667;28;20295;-85
2023/01/16 15:10:52;;;;;;;;;;;;;;;7.61;70.57;97014.59;5098229;28;19919;-81
2023/01/16 15:24:20;;;;;;;;;;;;;;;7.55;71.90;97004.78;5096759;28;20311;-83
2023/01/16 15:27:30;;;;;;;;;;;;;;;7.51;71.16;96993.88;5096817;28;20300;-82
2023/01/16 15:30:34;;;;;;;;;;;;;;;7.61;71.36;96989.41;5096630;28;19965;-84
2023/01/16 15:34:12;;;;;;;;;;;;;;;7.57;71.71;96993.28;5095667;28;19961;-83
2023/01/16 15:37:24;;;;;;;;;;;;;;;7.53;71.60;96986.75;5096207;28;19919;-83
2023/01/16 15:40:29;;;;;;;;;;;;;;;7.54;71.76;96985.78;5096399;28;20117;-84
2023/01/16 15:47:14;;;;;;;;;;;;;;;7.50;72.06;96981.84;5096537;28;19965;-81
2023/01/16 15:50:19;;;;;;;;;;;;;;;7.43;71.06;96978.16;5096235;28;19930;-88
2023/01/16 15:53:40;;;;;;;;;;;;;;;7.45;71.11;96971.88;5096602;28;20431;-79
2023/01/16 15:56:45;;;;;;;;;;;;;;;7.42;71.69;96960.94;5096557;28;19919;-84
2023/01/16 15:59:51;;;;;;;;;;;;;;;7.35;71.40;96975.50;5096305;28;19926;-86
2023/01/16 16:03:20;;;;;;;;;;;;;;;7.35;70.40;96960.72;5083384;28;19937;-79
2023/01/16 16:06:29;;;;;;;;;;;;;;;7.45;71.50;96963.25;5084990;28;19965;-78
2023/01/16 16:09:53;;;;;;;;;;;;;;;7.44;70.81;96952.06;5083343;28;20436;-86
2023/01/16 16:13:04;;;;;;;;;;;;;;;7.29;70.36;96943.13;5095613;28;20288;-83
2023/01/16 16:19:40;;;;;;;;;;;;;;;7.37;70.10;96944.97;5095613;28;19997;-87
2023/01/16 16:22:49;;;;;;;;;;;;;;;7.36;70.59;96935.56;5095834;28;19919;-87
2023/01/16 16:26:01;;;;;;;;;;;;;;;7.35;70.39;96944.31;5095717;28;20353;-85
2023/01/16 16:29:05;;;;;;;;;;;;;;;7.39;70.46;96943.88;5095440;28;19919;-86
2023/01/16 16:32:12;;;;;;;;;;;;;;;7.43;69.87;96936.59;5095069;28;20335;-83
2023/01/16 16:35:17;;;;;;;;;;;;;;;7.35;69.87;96937.34;5083051;28;20285;-83
2023/01/16 16:38:32;;;;;;;;;;;;;;;7.44;69.43;96946.03;5094722;28;19919;-83
2023/01/16 16:45:07;;;;;;;;;;;;;;;7.41;70.77;96948.94;5095211;28;20022;-84
2023/01/16 16:48:22;;;;;;;;;;;;;;;7.33;69.68;96951.44;5095288;28;19976;-83
2023/01/16 16:51:29;;;;;;;;;;;;;;;7.13;70.21;96956.75;5095062;28;19922;-83
2023/01/16 16:54:32;;;;;;;;;;;;;;;7.36;70.21;96953.75;5094796;28;19977;-83
2023/01/16 16:57:41;;;;;;;;;;;;;;;7.33;69.80;96949.66;5094836;28;19923;-81
2023/01/16 17:00:47;;;;;;;;;;;;;;;7.28;70.17;96958.88;5095148;28;19919;-79
2023/01/16 17:03:55;;;;;;;;;;;;;;;7.22;69.69;96962.88;5094976;28;20016;-83
2023/01/16 17:06:58;;;;;;;;;;;;;;;7.35;70.09;96960.72;5094698;28;19923;-85
2023/01/16 17:10:02;;;;;;;;;;;;;;;7.28;69.87;96974.47;5094627;28;19919;-87
2023/01/16 17:13:15;;;;;;;;;;;;;;;7.37;69.91;96984.81;5094483;28;19919;-85
2023/01/16 17:21:00;;;;;;;;;;;;;;;7.36;69.18;96980.53;5094482;28;19935;-81
2023/01/16 17:24:14;;;;;;;;;;;;;;;7.14;68.98;96986.97;5094384;28;20292;-86
2023/01/16 17:27:44;;;;;;;;;;;;;;;7.04;69.26;96983.59;5094335;28;20292;-84
2023/01/16 17:30:48;;;;;;;;;;;;;;;7.17;69.36;96981.47;5094042;28;19923;-83
2023/01/16 17:37:49;;;;;;;;;;;;;;;7.06;69.06;96988.66;5081541;28;19960;-84
2023/01/16 17:40:53;;;;;;;;;;;;;;;7.19;68.74;96996.94;5081497;28;19958;-82
2023/01/16 18:19:38;;;;;;;;;;;;;;;7.38;68.85;97020.22;5033277;28;19940;-81
2023/01/16 18:22:43;;;;;;;;;;;;;;;7.36;68.75;97016.94;5033282;28;19920;-80
2023/01/16 18:25:48;;;;;;;;;;;;;;;7.36;68.41;97021.31;5033312;28;20726;-81
2023/01/16 18:28:54;;;;;;;;;;;;;;;7.30;70.23;97020.09;5033285;28;19920;-80
2023/01/16 18:35:20;;;;;;;;;;;;;;;7.20;70.38;97027.97;5033301;28;19944;-79
2023/01/16 19:02:56;;;;;;;;;;;;;;;7.30;69.29;97047.88;5052547;28;19920;-79
2023/01/16 19:05:59;;;;;;;;;;;;;;;7.35;69.55;97037.88;5052852;28;20000;-80
2023/01/16 19:09:05;;;;;;;;;;;;;;;7.38;68.95;97037.59;5052943;28;19966;-78
2023/01/16 19:12:11;;;;;;;;;;;;;;;7.35;68.47;97045.69;5052794;28;19996;-78
2023/01/16 19:15:15;;;;;;;;;;;;;;;7.29;69.66;97051.44;5052807;28;19963;-79
2023/01/16 19:18:20;;;;;;;;;;;;;;;7.32;68.68;97057.19;5040881;28;19919;-79
2023/01/16 19:21:26;;;;;;;;;;;;;;;7.18;67.39;97061.09;5053055;28;20455;-78
2023/01/16 19:24:31;;;;;;;;;;;;;;;7.19;67.66;97046.31;5052534;28;20281;-79
2023/01/16 19:27:38;;;;;;;;;;;;;;;7.28;68.11;97049.81;5041625;28;20304;-79
2023/01/16 19:30:41;;;;;;;;;;;;;;;7.22;67.63;97048.63;5056655;28;19966;-79
2023/01/16 19:33:47;;;;;;;;;;;;;;;7.23;67.29;97064.03;5056052;28;19970;-79
2023/01/16 19:36:55;;;;;;;;;;;;;;;7.36;67.32;97062.91;5055354;28;19920;-79
2023/01/16 19:40:00;;;;;;;;;;;;;;;7.16;67.62;97070.78;5056039;28;20277;-79
2023/01/16 19:46:46;;;;;;;;;;;;;;;7.14;66.92;97084.88;5043495;28;19920;-79
2023/01/16 19:49:54;;;;;;;;;;;;;;;7.20;67.05;97074.72;5056006;28;19919;-84
2023/01/16 19:52:56;;;;;;;;;;;;;;;7.22;66.76;97080.59;5055680;28;19928;-81